sensor_id;sensor_type;location;lat;lon;timestamp;P1;durP1;ratioP1;P2;durP2;ratioP2
1206;SDS011;593;53.184;8.216;2023-03-20T00:01:13;17.05;;;9.50;;
1206;SDS011;593;53.184;8.216;2023-03-20T00:03:45;17.10;;;9.05;;
1206;SDS011;593;53.184;8.216;2023-03-20T00:06:15;12.27;;;8.02;;
1206;SDS011;593;53.184;8.216;2023-03-20T00:08:48;13.38;;;8.20;;
1206;SDS011;593;53.184;8.216;2023-03-20T00:11:28;14.05;;;8.52;;
1206;SDS011;593;53.184;8.216;2023-03-20T00:14:04;13.90;;;8.37;;
1206;SDS011;593;53.184;8.216;2023-03-20T00:16:32;13.20;;;8.38;;
1206;SDS011;593;53.184;8.216;2023-03-20T00:19:00;12.93;;;8.50;;
1206;SDS011;593;53.184;8.216;2023-03-20T00:21:27;18.48;;;9.95;;
1206;SDS011;593;53.184;8.216;2023-03-20T00:23:53;11.00;;;6.73;;
1206;SDS011;593;53.184;8.216;2023-03-20T00:26:19;11.10;;;7.05;;
1206;SDS011;593;53.184;8.216;2023-03-20T00:28:52;10.95;;;6.70;;
1206;SDS011;593;53.184;8.216;2023-03-20T00:31:28;8.97;;;6.50;;
1206;SDS011;593;53.184;8.216;2023-03-20T00:33:56;9.35;;;6.45;;
1206;SDS011;593;53.184;8.216;2023-03-20T00:36:24;10.27;;;6.60;;
1206;SDS011;593;53.184;8.216;2023-03-20T00:38:50;9.55;;;6.18;;
1206;SDS011;593;53.184;8.216;2023-03-20T00:41:27;7.23;;;5.20;;
1206;SDS011;593;53.184;8.216;2023-03-20T00:43:54;10.18;;;5.70;;
1206;SDS011;593;53.184;8.216;2023-03-20T00:46:23;10.10;;;6.03;;
1206;SDS011;593;53.184;8.216;2023-03-20T00:48:49;7.25;;;5.50;;
1206;SDS011;593;53.184;8.216;2023-03-20T00:51:15;9.73;;;5.80;;
1206;SDS011;593;53.184;8.216;2023-03-20T00:53:42;9.80;;;6.10;;
1206;SDS011;593;53.184;8.216;2023-03-20T00:56:13;8.67;;;6.87;;
1206;SDS011;593;53.184;8.216;2023-03-20T00:58:59;8.80;;;6.40;;
1206;SDS011;593;53.184;8.216;2023-03-20T01:01:27;9.73;;;6.40;;
1206;SDS011;593;53.184;8.216;2023-03-20T01:03:53;9.35;;;6.03;;
1206;SDS011;593;53.184;8.216;2023-03-20T01:06:18;10.13;;;6.70;;
1206;SDS011;593;53.184;8.216;2023-03-20T01:08:43;9.37;;;6.17;;
1206;SDS011;593;53.184;8.216;2023-03-20T01:11:09;11.47;;;6.80;;
1206;SDS011;593;53.184;8.216;2023-03-20T01:13:37;10.65;;;6.20;;
1206;SDS011;593;53.184;8.216;2023-03-20T01:16:04;7.35;;;4.68;;
1206;SDS011;593;53.184;8.216;2023-03-20T01:18:30;8.82;;;5.90;;
1206;SDS011;593;53.184;8.216;2023-03-20T01:20:56;9.60;;;6.93;;
1206;SDS011;593;53.184;8.216;2023-03-20T01:23:21;9.67;;;6.00;;
1206;SDS011;593;53.184;8.216;2023-03-20T01:25:47;8.83;;;6.07;;
1206;SDS011;593;53.184;8.216;2023-03-20T01:30:43;6.90;;;4.80;;
1206;SDS011;593;53.184;8.216;2023-03-20T01:33:19;6.72;;;4.97;;
1206;SDS011;593;53.184;8.216;2023-03-20T01:35:46;9.40;;;5.15;;
1206;SDS011;593;53.184;8.216;2023-03-20T01:38:15;7.75;;;5.63;;
1206;SDS011;593;53.184;8.216;2023-03-20T01:40:57;7.15;;;5.22;;
1206;SDS011;593;53.184;8.216;2023-03-20T01:43:26;5.82;;;4.55;;
1206;SDS011;593;53.184;8.216;2023-03-20T01:54:36;7.50;;;5.45;;
1206;SDS011;593;53.184;8.216;2023-03-20T01:56:56;6.68;;;5.28;;
1206;SDS011;593;53.184;8.216;2023-03-20T01:59:34;7.22;;;4.97;;
1206;SDS011;593;53.184;8.216;2023-03-20T02:02:05;8.02;;;5.85;;
1206;SDS011;593;53.184;8.216;2023-03-20T02:04:33;7.45;;;4.78;;
1206;SDS011;593;53.184;8.216;2023-03-20T02:07:02;7.93;;;5.70;;
1206;SDS011;593;53.184;8.216;2023-03-20T02:09:31;8.00;;;5.45;;
1206;SDS011;593;53.184;8.216;2023-03-20T02:11:56;8.03;;;4.67;;
1206;SDS011;593;53.184;8.216;2023-03-20T02:14:23;7.30;;;5.05;;
1206;SDS011;593;53.184;8.216;2023-03-20T02:16:50;8.77;;;5.45;;
1206;SDS011;593;53.184;8.216;2023-03-20T02:19:19;7.63;;;4.87;;
1206;SDS011;593;53.184;8.216;2023-03-20T02:27:38;8.23;;;4.80;;
1206;SDS011;593;53.184;8.216;2023-03-20T02:41:29;13.15;;;5.10;;
1206;SDS011;593;53.184;8.216;2023-03-20T02:46:40;7.35;;;4.35;;
1206;SDS011;593;53.184;8.216;2023-03-20T02:51:59;10.27;;;4.30;;
1206;SDS011;593;53.184;8.216;2023-03-20T02:54:36;6.43;;;4.43;;
1206;SDS011;593;53.184;8.216;2023-03-20T02:57:08;6.55;;;4.68;;
1206;SDS011;593;53.184;8.216;2023-03-20T02:59:46;6.40;;;4.78;;
1206;SDS011;593;53.184;8.216;2023-03-20T03:02:33;7.05;;;4.35;;
1206;SDS011;593;53.184;8.216;2023-03-20T03:05:24;7.13;;;4.95;;
1206;SDS011;593;53.184;8.216;2023-03-20T03:07:52;10.32;;;5.30;;
1206;SDS011;593;53.184;8.216;2023-03-20T03:10:25;6.55;;;4.72;;
1206;SDS011;593;53.184;8.216;2023-03-20T03:12:54;6.63;;;3.85;;
1206;SDS011;593;53.184;8.216;2023-03-20T03:15:24;7.05;;;4.45;;
1206;SDS011;593;53.184;8.216;2023-03-20T03:18:04;6.03;;;4.40;;
1206;SDS011;593;53.184;8.216;2023-03-20T03:20:32;5.73;;;4.40;;
1206;SDS011;593;53.184;8.216;2023-03-20T03:23:00;8.55;;;4.32;;
1206;SDS011;593;53.184;8.216;2023-03-20T03:25:28;6.60;;;4.13;;
1206;SDS011;593;53.184;8.216;2023-03-20T03:30:32;5.10;;;3.65;;
1206;SDS011;593;53.184;8.216;2023-03-20T03:35:49;6.65;;;4.68;;
1206;SDS011;593;53.184;8.216;2023-03-20T03:41:21;7.65;;;4.80;;
1206;SDS011;593;53.184;8.216;2023-03-20T03:49:09;6.10;;;4.25;;
1206;SDS011;593;53.184;8.216;2023-03-20T03:51:40;5.97;;;4.68;;
1206;SDS011;593;53.184;8.216;2023-03-20T03:54:13;6.13;;;4.50;;
1206;SDS011;593;53.184;8.216;2023-03-20T03:56:52;6.20;;;4.23;;
1206;SDS011;593;53.184;8.216;2023-03-20T03:59:22;6.18;;;4.45;;
1206;SDS011;593;53.184;8.216;2023-03-20T04:01:52;7.80;;;5.15;;
1206;SDS011;593;53.184;8.216;2023-03-20T04:04:20;6.68;;;4.60;;
1206;SDS011;593;53.184;8.216;2023-03-20T04:06:47;7.72;;;4.85;;
1206;SDS011;593;53.184;8.216;2023-03-20T04:09:13;7.50;;;5.33;;
1206;SDS011;593;53.184;8.216;2023-03-20T04:11:38;7.43;;;5.60;;
1206;SDS011;593;53.184;8.216;2023-03-20T04:14:04;9.30;;;5.53;;
1206;SDS011;593;53.184;8.216;2023-03-20T04:16:29;7.47;;;5.13;;
1206;SDS011;593;53.184;8.216;2023-03-20T04:18:55;8.53;;;5.10;;
1206;SDS011;593;53.184;8.216;2023-03-20T04:21:20;7.00;;;5.30;;
1206;SDS011;593;53.184;8.216;2023-03-20T04:23:45;9.20;;;4.93;;
1206;SDS011;593;53.184;8.216;2023-03-20T04:26:11;8.33;;;3.97;;
1206;SDS011;593;53.184;8.216;2023-03-20T04:28:36;5.37;;;3.93;;
1206;SDS011;593;53.184;8.216;2023-03-20T04:31:02;5.13;;;4.20;;
1206;SDS011;593;53.184;8.216;2023-03-20T04:33:28;6.70;;;4.32;;
1206;SDS011;593;53.184;8.216;2023-03-20T04:35:54;7.37;;;4.60;;
1206;SDS011;593;53.184;8.216;2023-03-20T04:38:20;7.10;;;4.70;;
1206;SDS011;593;53.184;8.216;2023-03-20T04:40:47;6.78;;;4.15;;
1206;SDS011;593;53.184;8.216;2023-03-20T04:43:13;7.07;;;4.43;;
1206;SDS011;593;53.184;8.216;2023-03-20T04:45:39;7.13;;;4.55;;
1206;SDS011;593;53.184;8.216;2023-03-20T04:48:05;6.27;;;4.17;;
1206;SDS011;593;53.184;8.216;2023-03-20T04:50:30;6.00;;;3.53;;
1206;SDS011;593;53.184;8.216;2023-03-20T04:52:56;5.20;;;3.80;;
1206;SDS011;593;53.184;8.216;2023-03-20T04:55:21;7.90;;;7.10;;
1206;SDS011;593;53.184;8.216;2023-03-20T04:57:47;5.40;;;4.30;;
1206;SDS011;593;53.184;8.216;2023-03-20T05:00:13;10.17;;;5.10;;
1206;SDS011;593;53.184;8.216;2023-03-20T05:02:39;9.03;;;5.23;;
1206;SDS011;593;53.184;8.216;2023-03-20T05:05:04;8.63;;;4.47;;
1206;SDS011;593;53.184;8.216;2023-03-20T05:07:30;6.47;;;3.77;;
1206;SDS011;593;53.184;8.216;2023-03-20T05:09:56;7.85;;;4.85;;
1206;SDS011;593;53.184;8.216;2023-03-20T05:12:22;8.00;;;5.20;;
1206;SDS011;593;53.184;8.216;2023-03-20T05:14:47;12.83;;;5.10;;
1206;SDS011;593;53.184;8.216;2023-03-20T05:17:13;10.00;;;7.07;;
1206;SDS011;593;53.184;8.216;2023-03-20T05:19:38;9.10;;;5.60;;
1206;SDS011;593;53.184;8.216;2023-03-20T05:22:03;7.93;;;4.50;;
1206;SDS011;593;53.184;8.216;2023-03-20T05:24:29;7.07;;;5.37;;
1206;SDS011;593;53.184;8.216;2023-03-20T05:26:55;10.23;;;5.05;;
1206;SDS011;593;53.184;8.216;2023-03-20T05:29:21;7.50;;;5.07;;
1206;SDS011;593;53.184;8.216;2023-03-20T05:31:46;9.37;;;5.87;;
1206;SDS011;593;53.184;8.216;2023-03-20T05:34:12;7.57;;;5.27;;
1206;SDS011;593;53.184;8.216;2023-03-20T05:36:37;9.17;;;4.60;;
1206;SDS011;593;53.184;8.216;2023-03-20T05:39:03;7.07;;;4.80;;
1206;SDS011;593;53.184;8.216;2023-03-20T05:41:28;7.37;;;4.63;;
1206;SDS011;593;53.184;8.216;2023-03-20T05:43:54;7.67;;;5.00;;
1206;SDS011;593;53.184;8.216;2023-03-20T05:46:19;9.50;;;5.33;;
1206;SDS011;593;53.184;8.216;2023-03-20T05:48:45;8.73;;;4.97;;
1206;SDS011;593;53.184;8.216;2023-03-20T05:51:10;7.97;;;4.97;;
1206;SDS011;593;53.184;8.216;2023-03-20T05:53:35;6.50;;;4.73;;
1206;SDS011;593;53.184;8.216;2023-03-20T05:56:01;10.20;;;5.30;;
1206;SDS011;593;53.184;8.216;2023-03-20T05:58:26;7.50;;;5.43;;
1206;SDS011;593;53.184;8.216;2023-03-20T06:00:51;10.10;;;6.53;;
1206;SDS011;593;53.184;8.216;2023-03-20T06:03:17;8.57;;;4.70;;
1206;SDS011;593;53.184;8.216;2023-03-20T06:05:42;7.23;;;5.63;;
1206;SDS011;593;53.184;8.216;2023-03-20T06:08:08;9.53;;;5.20;;
1206;SDS011;593;53.184;8.216;2023-03-20T06:10:33;9.47;;;6.23;;
1206;SDS011;593;53.184;8.216;2023-03-20T06:12:59;9.03;;;6.30;;
1206;SDS011;593;53.184;8.216;2023-03-20T06:15:25;7.80;;;5.50;;
1206;SDS011;593;53.184;8.216;2023-03-20T06:17:52;9.75;;;5.72;;
1206;SDS011;593;53.184;8.216;2023-03-20T06:20:19;9.45;;;5.63;;
1206;SDS011;593;53.184;8.216;2023-03-20T06:22:44;8.40;;;5.43;;
1206;SDS011;593;53.184;8.216;2023-03-20T06:25:10;8.10;;;5.40;;
1206;SDS011;593;53.184;8.216;2023-03-20T06:27:35;15.23;;;5.97;;
1206;SDS011;593;53.184;8.216;2023-03-20T06:30:01;11.07;;;5.87;;
1206;SDS011;593;53.184;8.216;2023-03-20T06:32:26;6.90;;;5.67;;
1206;SDS011;593;53.184;8.216;2023-03-20T06:34:51;10.17;;;6.63;;
1206;SDS011;593;53.184;8.216;2023-03-20T06:37:17;9.50;;;7.30;;
1206;SDS011;593;53.184;8.216;2023-03-20T06:39:43;9.48;;;7.13;;
1206;SDS011;593;53.184;8.216;2023-03-20T06:42:09;13.77;;;6.83;;
1206;SDS011;593;53.184;8.216;2023-03-20T06:44:36;8.75;;;5.75;;
1206;SDS011;593;53.184;8.216;2023-03-20T06:47:02;15.73;;;7.73;;
1206;SDS011;593;53.184;8.216;2023-03-20T06:49:27;8.30;;;6.70;;
1206;SDS011;593;53.184;8.216;2023-03-20T06:51:53;8.60;;;6.53;;
1206;SDS011;593;53.184;8.216;2023-03-20T06:54:18;14.07;;;6.97;;
1206;SDS011;593;53.184;8.216;2023-03-20T06:56:43;10.53;;;7.17;;
1206;SDS011;593;53.184;8.216;2023-03-20T06:59:09;12.57;;;7.17;;
1206;SDS011;593;53.184;8.216;2023-03-20T07:01:34;10.20;;;6.53;;
1206;SDS011;593;53.184;8.216;2023-03-20T07:03:59;10.30;;;7.67;;
1206;SDS011;593;53.184;8.216;2023-03-20T07:06:25;10.80;;;7.40;;
1206;SDS011;593;53.184;8.216;2023-03-20T07:08:50;11.67;;;6.67;;
1206;SDS011;593;53.184;8.216;2023-03-20T07:11:17;11.48;;;7.32;;
1206;SDS011;593;53.184;8.216;2023-03-20T07:13:42;8.83;;;6.67;;
1206;SDS011;593;53.184;8.216;2023-03-20T07:16:08;10.30;;;5.87;;
1206;SDS011;593;53.184;8.216;2023-03-20T07:18:33;12.33;;;6.73;;
1206;SDS011;593;53.184;8.216;2023-03-20T07:21:00;10.53;;;8.00;;
1206;SDS011;593;53.184;8.216;2023-03-20T07:23:28;11.70;;;6.40;;
1206;SDS011;593;53.184;8.216;2023-03-20T07:25:54;10.50;;;6.82;;
1206;SDS011;593;53.184;8.216;2023-03-20T07:28:20;9.80;;;6.53;;
1206;SDS011;593;53.184;8.216;2023-03-20T07:30:45;9.33;;;6.50;;
1206;SDS011;593;53.184;8.216;2023-03-20T07:33:11;11.10;;;7.40;;
1206;SDS011;593;53.184;8.216;2023-03-20T07:35:36;9.60;;;6.30;;
1206;SDS011;593;53.184;8.216;2023-03-20T07:38:03;14.05;;;6.10;;
1206;SDS011;593;53.184;8.216;2023-03-20T07:40:33;7.32;;;5.55;;
1206;SDS011;593;53.184;8.216;2023-03-20T07:43:02;12.32;;;6.00;;
1206;SDS011;593;53.184;8.216;2023-03-20T07:45:27;9.50;;;5.63;;
1206;SDS011;593;53.184;8.216;2023-03-20T07:47:53;11.20;;;6.10;;
1206;SDS011;593;53.184;8.216;2023-03-20T07:50:18;10.50;;;7.07;;
1206;SDS011;593;53.184;8.216;2023-03-20T07:52:47;7.83;;;5.73;;
1206;SDS011;593;53.184;8.216;2023-03-20T07:55:13;6.18;;;5.10;;
1206;SDS011;593;53.184;8.216;2023-03-20T07:57:40;8.15;;;4.85;;
1206;SDS011;593;53.184;8.216;2023-03-20T08:00:06;6.70;;;4.60;;
1206;SDS011;593;53.184;8.216;2023-03-20T08:02:32;5.90;;;4.70;;
1206;SDS011;593;53.184;8.216;2023-03-20T08:04:58;10.03;;;6.07;;
1206;SDS011;593;53.184;8.216;2023-03-20T08:07:24;8.00;;;5.23;;
1206;SDS011;593;53.184;8.216;2023-03-20T08:09:49;7.83;;;4.77;;
1206;SDS011;593;53.184;8.216;2023-03-20T08:12:14;10.37;;;5.63;;
1206;SDS011;593;53.184;8.216;2023-03-20T08:14:41;6.82;;;4.30;;
1206;SDS011;593;53.184;8.216;2023-03-20T08:17:07;7.25;;;4.47;;
1206;SDS011;593;53.184;8.216;2023-03-20T08:19:33;7.17;;;4.43;;
1206;SDS011;593;53.184;8.216;2023-03-20T08:21:58;5.93;;;5.20;;
1206;SDS011;593;53.184;8.216;2023-03-20T08:24:23;7.13;;;4.70;;
1206;SDS011;593;53.184;8.216;2023-03-20T08:26:54;6.57;;;4.83;;
1206;SDS011;593;53.184;8.216;2023-03-20T08:29:23;8.85;;;5.72;;
1206;SDS011;593;53.184;8.216;2023-03-20T08:31:53;8.18;;;4.45;;
1206;SDS011;593;53.184;8.216;2023-03-20T08:34:18;6.47;;;4.73;;
1206;SDS011;593;53.184;8.216;2023-03-20T08:36:43;5.43;;;4.60;;
1206;SDS011;593;53.184;8.216;2023-03-20T08:39:09;8.07;;;4.53;;
1206;SDS011;593;53.184;8.216;2023-03-20T08:41:37;5.80;;;4.43;;
1206;SDS011;593;53.184;8.216;2023-03-20T08:44:04;5.75;;;4.35;;
1206;SDS011;593;53.184;8.216;2023-03-20T08:46:30;7.60;;;4.40;;
1206;SDS011;593;53.184;8.216;2023-03-20T08:48:55;6.27;;;4.93;;
1206;SDS011;593;53.184;8.216;2023-03-20T08:51:22;6.93;;;4.13;;
1206;SDS011;593;53.184;8.216;2023-03-20T08:53:48;7.43;;;4.70;;
1206;SDS011;593;53.184;8.216;2023-03-20T08:56:13;9.10;;;5.23;;
1206;SDS011;593;53.184;8.216;2023-03-20T08:58:39;6.60;;;4.30;;
1206;SDS011;593;53.184;8.216;2023-03-20T09:01:05;6.00;;;4.40;;
1206;SDS011;593;53.184;8.216;2023-03-20T09:03:32;5.45;;;3.80;;
1206;SDS011;593;53.184;8.216;2023-03-20T09:05:57;4.17;;;3.77;;
1206;SDS011;593;53.184;8.216;2023-03-20T09:08:23;8.03;;;4.40;;
1206;SDS011;593;53.184;8.216;2023-03-20T09:10:49;6.90;;;4.17;;
1206;SDS011;593;53.184;8.216;2023-03-20T09:13:14;5.40;;;3.73;;
1206;SDS011;593;53.184;8.216;2023-03-20T09:15:40;5.03;;;4.20;;
1206;SDS011;593;53.184;8.216;2023-03-20T09:18:06;3.50;;;3.20;;
1206;SDS011;593;53.184;8.216;2023-03-20T09:20:32;5.20;;;3.55;;
1206;SDS011;593;53.184;8.216;2023-03-20T09:22:58;3.70;;;3.40;;
1206;SDS011;593;53.184;8.216;2023-03-20T09:25:23;3.97;;;3.57;;
1206;SDS011;593;53.184;8.216;2023-03-20T09:27:52;4.43;;;3.67;;
1206;SDS011;593;53.184;8.216;2023-03-20T09:30:19;5.93;;;4.60;;
1206;SDS011;593;53.184;8.216;2023-03-20T09:32:46;4.43;;;3.15;;
1206;SDS011;593;53.184;8.216;2023-03-20T09:35:11;6.03;;;4.00;;
1206;SDS011;593;53.184;8.216;2023-03-20T09:37:36;7.07;;;4.43;;
1206;SDS011;593;53.184;8.216;2023-03-20T09:40:02;6.63;;;2.90;;
1206;SDS011;593;53.184;8.216;2023-03-20T09:47:51;5.43;;;3.63;;
1206;SDS011;593;53.184;8.216;2023-03-20T09:53:08;3.10;;;2.80;;
1206;SDS011;593;53.184;8.216;2023-03-20T09:55:40;4.60;;;3.15;;
1206;SDS011;593;53.184;8.216;2023-03-20T09:58:17;5.85;;;3.88;;
1206;SDS011;593;53.184;8.216;2023-03-20T10:00:54;5.35;;;3.38;;
1206;SDS011;593;53.184;8.216;2023-03-20T10:06:16;4.70;;;3.53;;
1206;SDS011;593;53.184;8.216;2023-03-20T10:08:42;4.57;;;3.30;;
1206;SDS011;593;53.184;8.216;2023-03-20T10:14:23;6.57;;;3.13;;
1206;SDS011;593;53.184;8.216;2023-03-20T10:19:57;5.23;;;3.40;;
1206;SDS011;593;53.184;8.216;2023-03-20T10:22:35;6.82;;;3.35;;
1206;SDS011;593;53.184;8.216;2023-03-20T10:27:38;4.87;;;3.43;;
1206;SDS011;593;53.184;8.216;2023-03-20T10:32:37;3.83;;;2.70;;
1206;SDS011;593;53.184;8.216;2023-03-20T10:35:16;5.87;;;3.73;;
1206;SDS011;593;53.184;8.216;2023-03-20T10:40:39;3.47;;;2.70;;
1206;SDS011;593;53.184;8.216;2023-03-20T10:46:06;5.03;;;4.10;;
1206;SDS011;593;53.184;8.216;2023-03-20T10:48:44;4.57;;;3.23;;
1206;SDS011;593;53.184;8.216;2023-03-20T10:51:14;11.77;;;3.90;;
1206;SDS011;593;53.184;8.216;2023-03-20T10:56:24;3.40;;;3.10;;
1206;SDS011;593;53.184;8.216;2023-03-20T10:58:58;5.30;;;3.50;;
1206;SDS011;593;53.184;8.216;2023-03-20T11:01:46;3.85;;;3.30;;
1206;SDS011;593;53.184;8.216;2023-03-20T11:04:11;4.93;;;3.07;;
1206;SDS011;593;53.184;8.216;2023-03-20T11:06:40;3.97;;;3.20;;
1206;SDS011;593;53.184;8.216;2023-03-20T11:09:21;4.30;;;2.77;;
1206;SDS011;593;53.184;8.216;2023-03-20T11:11:50;3.80;;;3.40;;
1206;SDS011;593;53.184;8.216;2023-03-20T11:14:21;4.67;;;3.37;;
1206;SDS011;593;53.184;8.216;2023-03-20T11:16:55;4.30;;;3.63;;
1206;SDS011;593;53.184;8.216;2023-03-20T11:19:24;5.00;;;2.60;;
1206;SDS011;593;53.184;8.216;2023-03-20T11:21:51;3.23;;;2.93;;
1206;SDS011;593;53.184;8.216;2023-03-20T11:26:50;4.90;;;3.70;;
1206;SDS011;593;53.184;8.216;2023-03-20T11:29:22;4.30;;;3.13;;
1206;SDS011;593;53.184;8.216;2023-03-20T11:31:54;3.50;;;2.80;;
1206;SDS011;593;53.184;8.216;2023-03-20T11:34:32;6.37;;;3.80;;
1206;SDS011;593;53.184;8.216;2023-03-20T11:37:05;4.67;;;4.10;;
1206;SDS011;593;53.184;8.216;2023-03-20T11:39:31;7.07;;;3.83;;
1206;SDS011;593;53.184;8.216;2023-03-20T11:41:59;3.97;;;3.57;;
1206;SDS011;593;53.184;8.216;2023-03-20T11:47:05;4.60;;;3.20;;
1206;SDS011;593;53.184;8.216;2023-03-20T11:49:51;6.33;;;3.50;;
1206;SDS011;593;53.184;8.216;2023-03-20T11:52:21;4.87;;;3.80;;
1206;SDS011;593;53.184;8.216;2023-03-20T11:54:50;5.17;;;3.63;;
1206;SDS011;593;53.184;8.216;2023-03-20T11:57:27;4.60;;;3.67;;
1206;SDS011;593;53.184;8.216;2023-03-20T11:59:53;6.40;;;4.43;;
1206;SDS011;593;53.184;8.216;2023-03-20T12:02:20;6.00;;;4.13;;
1206;SDS011;593;53.184;8.216;2023-03-20T12:04:48;5.03;;;3.70;;
1206;SDS011;593;53.184;8.216;2023-03-20T12:07:18;8.80;;;3.50;;
1206;SDS011;593;53.184;8.216;2023-03-20T12:09:51;3.47;;;3.13;;
1206;SDS011;593;53.184;8.216;2023-03-20T12:14:55;4.67;;;3.70;;
1206;SDS011;593;53.184;8.216;2023-03-20T12:22:57;5.93;;;4.37;;
1206;SDS011;593;53.184;8.216;2023-03-20T12:25:37;7.87;;;5.57;;
1206;SDS011;593;53.184;8.216;2023-03-20T12:28:27;5.50;;;4.20;;
1206;SDS011;593;53.184;8.216;2023-03-20T12:31:05;7.90;;;4.90;;
1206;SDS011;593;53.184;8.216;2023-03-20T12:33:56;6.00;;;5.00;;
1206;SDS011;593;53.184;8.216;2023-03-20T12:36:35;7.70;;;4.63;;
1206;SDS011;593;53.184;8.216;2023-03-20T12:39:10;6.23;;;4.03;;
1206;SDS011;593;53.184;8.216;2023-03-20T12:50:25;5.90;;;3.90;;
1206;SDS011;593;53.184;8.216;2023-03-20T13:01:29;6.93;;;4.23;;
1206;SDS011;593;53.184;8.216;2023-03-20T13:12:24;4.70;;;4.10;;
1206;SDS011;593;53.184;8.216;2023-03-20T13:15:18;5.23;;;3.80;;
1206;SDS011;593;53.184;8.216;2023-03-20T13:23:03;6.77;;;4.63;;
1206;SDS011;593;53.184;8.216;2023-03-20T13:28:16;4.00;;;3.30;;
1206;SDS011;593;53.184;8.216;2023-03-20T13:31:09;5.57;;;4.37;;
1206;SDS011;593;53.184;8.216;2023-03-20T13:33:58;5.93;;;3.80;;
1206;SDS011;593;53.184;8.216;2023-03-20T13:36:35;4.40;;;4.00;;
1206;SDS011;593;53.184;8.216;2023-03-20T13:39:09;4.83;;;3.73;;
1206;SDS011;593;53.184;8.216;2023-03-20T13:41:38;5.30;;;4.60;;
1206;SDS011;593;53.184;8.216;2023-03-20T13:44:04;5.03;;;4.30;;
1206;SDS011;593;53.184;8.216;2023-03-20T13:46:43;6.00;;;4.60;;
1206;SDS011;593;53.184;8.216;2023-03-20T13:49:19;7.87;;;4.77;;
1206;SDS011;593;53.184;8.216;2023-03-20T13:54:38;4.50;;;4.10;;
1206;SDS011;593;53.184;8.216;2023-03-20T13:57:28;4.93;;;4.47;;
1206;SDS011;593;53.184;8.216;2023-03-20T14:05:38;7.00;;;5.77;;
1206;SDS011;593;53.184;8.216;2023-03-20T14:08:21;11.97;;;6.50;;
1206;SDS011;593;53.184;8.216;2023-03-20T14:16:22;10.30;;;7.20;;
1206;SDS011;593;53.184;8.216;2023-03-20T14:18:48;8.77;;;6.47;;
1206;SDS011;593;53.184;8.216;2023-03-20T14:21:22;8.00;;;7.20;;
1206;SDS011;593;53.184;8.216;2023-03-20T14:23:49;9.90;;;6.87;;
1206;SDS011;593;53.184;8.216;2023-03-20T14:26:31;7.43;;;6.10;;
1206;SDS011;593;53.184;8.216;2023-03-20T14:31:36;6.33;;;5.73;;
1206;SDS011;593;53.184;8.216;2023-03-20T14:34:07;8.43;;;5.80;;
1206;SDS011;593;53.184;8.216;2023-03-20T14:39:26;8.10;;;7.30;;
1206;SDS011;593;53.184;8.216;2023-03-20T14:41:59;7.93;;;7.27;;
1206;SDS011;593;53.184;8.216;2023-03-20T14:53:26;11.10;;;7.00;;
1206;SDS011;593;53.184;8.216;2023-03-20T15:03:46;7.80;;;7.10;;
1206;SDS011;593;53.184;8.216;2023-03-20T15:06:15;8.10;;;7.33;;
1206;SDS011;593;53.184;8.216;2023-03-20T15:08:44;11.50;;;7.90;;
1206;SDS011;593;53.184;8.216;2023-03-20T15:11:13;6.77;;;6.27;;
1206;SDS011;593;53.184;8.216;2023-03-20T15:13:40;7.50;;;6.90;;
1206;SDS011;593;53.184;8.216;2023-03-20T15:16:08;7.60;;;6.80;;
1206;SDS011;593;53.184;8.216;2023-03-20T15:18:40;6.97;;;5.97;;
1206;SDS011;593;53.184;8.216;2023-03-20T15:21:26;8.50;;;5.73;;
1206;SDS011;593;53.184;8.216;2023-03-20T15:23:55;7.90;;;7.23;;
1206;SDS011;593;53.184;8.216;2023-03-20T15:26:22;10.33;;;6.47;;
1206;SDS011;593;53.184;8.216;2023-03-20T15:28:49;7.07;;;6.20;;
1206;SDS011;593;53.184;8.216;2023-03-20T15:31:39;7.13;;;5.33;;
1206;SDS011;593;53.184;8.216;2023-03-20T15:34:30;5.57;;;5.17;;
1206;SDS011;593;53.184;8.216;2023-03-20T15:37:11;7.00;;;6.07;;
1206;SDS011;593;53.184;8.216;2023-03-20T15:40:29;5.37;;;4.87;;
1206;SDS011;593;53.184;8.216;2023-03-20T15:42:59;5.17;;;4.77;;
1206;SDS011;593;53.184;8.216;2023-03-20T15:45:33;8.63;;;4.80;;
1206;SDS011;593;53.184;8.216;2023-03-20T15:48:00;6.40;;;5.83;;
1206;SDS011;593;53.184;8.216;2023-03-20T15:50:34;6.33;;;5.73;;
1206;SDS011;593;53.184;8.216;2023-03-20T15:53:04;8.37;;;5.63;;
1206;SDS011;593;53.184;8.216;2023-03-20T15:55:48;6.87;;;6.17;;
1206;SDS011;593;53.184;8.216;2023-03-20T15:58:16;6.07;;;5.13;;
1206;SDS011;593;53.184;8.216;2023-03-20T16:00:43;7.20;;;6.20;;
1206;SDS011;593;53.184;8.216;2023-03-20T16:03:14;5.83;;;5.23;;
1206;SDS011;593;53.184;8.216;2023-03-20T16:05:43;5.00;;;4.47;;
1206;SDS011;593;53.184;8.216;2023-03-20T16:08:30;7.43;;;5.30;;
1206;SDS011;593;53.184;8.216;2023-03-20T16:10:57;6.90;;;4.43;;
1206;SDS011;593;53.184;8.216;2023-03-20T16:13:38;4.00;;;3.70;;
1206;SDS011;593;53.184;8.216;2023-03-20T16:16:06;5.50;;;5.03;;
1206;SDS011;593;53.184;8.216;2023-03-20T16:18:35;4.27;;;3.97;;
1206;SDS011;593;53.184;8.216;2023-03-20T16:21:04;5.90;;;5.37;;
1206;SDS011;593;53.184;8.216;2023-03-20T16:23:36;4.30;;;4.00;;
1206;SDS011;593;53.184;8.216;2023-03-20T16:26:07;6.03;;;4.13;;
1206;SDS011;593;53.184;8.216;2023-03-20T16:28:40;4.67;;;3.90;;
1206;SDS011;593;53.184;8.216;2023-03-20T16:31:19;6.13;;;4.50;;
1206;SDS011;593;53.184;8.216;2023-03-20T16:33:48;3.80;;;3.50;;
1206;SDS011;593;53.184;8.216;2023-03-20T16:36:15;3.50;;;3.00;;
1206;SDS011;593;53.184;8.216;2023-03-20T16:38:55;3.93;;;3.60;;
1206;SDS011;593;53.184;8.216;2023-03-20T16:41:31;3.57;;;2.90;;
1206;SDS011;593;53.184;8.216;2023-03-20T16:44:09;3.37;;;3.10;;
1206;SDS011;593;53.184;8.216;2023-03-20T16:46:36;4.67;;;3.73;;
1206;SDS011;593;53.184;8.216;2023-03-20T16:51:58;3.00;;;2.77;;
1206;SDS011;593;53.184;8.216;2023-03-20T16:54:26;3.57;;;2.83;;
1206;SDS011;593;53.184;8.216;2023-03-20T16:56:54;3.23;;;3.00;;
1206;SDS011;593;53.184;8.216;2023-03-20T16:59:21;3.30;;;2.80;;
1206;SDS011;593;53.184;8.216;2023-03-20T17:01:49;3.50;;;3.20;;
1206;SDS011;593;53.184;8.216;2023-03-20T17:06:49;3.50;;;3.13;;
1206;SDS011;593;53.184;8.216;2023-03-20T17:09:25;7.43;;;3.23;;
1206;SDS011;593;53.184;8.216;2023-03-20T17:12:14;5.00;;;4.03;;
1206;SDS011;593;53.184;8.216;2023-03-20T17:14:42;3.93;;;3.70;;
1206;SDS011;593;53.184;8.216;2023-03-20T17:17:14;4.80;;;4.27;;
1206;SDS011;593;53.184;8.216;2023-03-20T17:19:41;3.60;;;3.10;;
1206;SDS011;593;53.184;8.216;2023-03-20T17:22:13;5.13;;;3.67;;
1206;SDS011;593;53.184;8.216;2023-03-20T17:24:40;4.53;;;2.97;;
1206;SDS011;593;53.184;8.216;2023-03-20T17:27:08;3.37;;;3.07;;
1206;SDS011;593;53.184;8.216;2023-03-20T17:29:35;4.50;;;4.10;;
1206;SDS011;593;53.184;8.216;2023-03-20T17:32:01;4.73;;;3.77;;
1206;SDS011;593;53.184;8.216;2023-03-20T17:34:26;4.07;;;3.77;;
1206;SDS011;593;53.184;8.216;2023-03-20T17:36:52;4.53;;;4.07;;
1206;SDS011;593;53.184;8.216;2023-03-20T17:39:18;4.30;;;3.90;;
1206;SDS011;593;53.184;8.216;2023-03-20T17:41:45;5.33;;;3.80;;
1206;SDS011;593;53.184;8.216;2023-03-20T17:44:11;4.47;;;4.07;;
1206;SDS011;593;53.184;8.216;2023-03-20T17:46:36;4.50;;;4.10;;
1206;SDS011;593;53.184;8.216;2023-03-20T17:49:20;5.47;;;3.97;;
1206;SDS011;593;53.184;8.216;2023-03-20T17:51:50;4.70;;;3.77;;
1206;SDS011;593;53.184;8.216;2023-03-20T17:54:16;4.33;;;4.03;;
1206;SDS011;593;53.184;8.216;2023-03-20T17:56:42;4.47;;;4.03;;
1206;SDS011;593;53.184;8.216;2023-03-20T17:59:13;8.60;;;4.70;;
1206;SDS011;593;53.184;8.216;2023-03-20T18:01:39;4.73;;;4.33;;
1206;SDS011;593;53.184;8.216;2023-03-20T18:04:05;5.47;;;4.97;;
1206;SDS011;593;53.184;8.216;2023-03-20T18:06:31;6.37;;;5.03;;
1206;SDS011;593;53.184;8.216;2023-03-20T18:08:57;5.33;;;4.90;;
1206;SDS011;593;53.184;8.216;2023-03-20T18:11:24;5.57;;;5.00;;
1206;SDS011;593;53.184;8.216;2023-03-20T18:13:50;6.07;;;5.57;;
1206;SDS011;593;53.184;8.216;2023-03-20T18:16:17;5.30;;;4.80;;
1206;SDS011;593;53.184;8.216;2023-03-20T18:18:45;6.10;;;5.40;;
1206;SDS011;593;53.184;8.216;2023-03-20T18:21:11;4.88;;;4.47;;
1206;SDS011;593;53.184;8.216;2023-03-20T18:23:37;5.77;;;5.27;;
1206;SDS011;593;53.184;8.216;2023-03-20T18:26:03;4.73;;;4.43;;
1206;SDS011;593;53.184;8.216;2023-03-20T18:28:40;5.50;;;5.00;;